sensor_id;sensor_type;location;lat;lon;timestamp;pressure;altitude;pressure_sealevel;temperature;humidity
50302;BME280;36550;50.472;19.744;2023-05-02T00:01:35;98068.11;;;8.23;64.65
50302;BME280;36550;50.472;19.744;2023-05-02T00:04:18;98072.30;;;8.18;64.67
50302;BME280;36550;50.472;19.744;2023-05-02T00:07:03;98071.27;;;8.13;64.72
50302;BME280;36550;50.472;19.744;2023-05-02T00:09:47;98067.25;;;8.10;64.68
50302;BME280;36550;50.472;19.744;2023-05-02T00:12:31;98065.31;;;8.06;64.75
50302;BME280;36550;50.472;19.744;2023-05-02T00:15:16;98062.30;;;8.02;64.92
50302;BME280;36550;50.472;19.744;2023-05-02T00:18:00;98059.19;;;7.95;64.97
50302;BME280;36550;50.472;19.744;2023-05-02T00:20:43;98056.39;;;7.89;65.07
50302;BME280;36550;50.472;19.744;2023-05-02T00:23:28;98053.67;;;7.82;65.14
50302;BME280;36550;50.472;19.744;2023-05-02T00:26:12;98050.20;;;7.75;65.24
50302;BME280;36550;50.472;19.744;2023-05-02T00:28:56;98049.64;;;7.66;65.35
50302;BME280;36550;50.472;19.744;2023-05-02T00:31:41;98045.39;;;7.59;65.36
50302;BME280;36550;50.472;19.744;2023-05-02T00:34:28;98048.88;;;7.50;65.36
50302;BME280;36550;50.472;19.744;2023-05-02T00:37:13;98050.73;;;7.41;65.35
50302;BME280;36550;50.472;19.744;2023-05-02T00:39:57;98044.17;;;7.30;65.41
50302;BME280;36550;50.472;19.744;2023-05-02T00:42:41;98043.71;;;7.21;65.60
50302;BME280;36550;50.472;19.744;2023-05-02T00:45:25;98046.52;;;7.16;65.67
50302;BME280;36550;50.472;19.744;2023-05-02T00:48:09;98045.47;;;7.10;65.91
50302;BME280;36550;50.472;19.744;2023-05-02T00:50:54;98043.89;;;7.07;66.20
50302;BME280;36550;50.472;19.744;2023-05-02T00:53:39;98044.39;;;7.03;66.36
50302;BME280;36550;50.472;19.744;2023-05-02T00:56:23;98050.81;;;6.97;66.53
50302;BME280;36550;50.472;19.744;2023-05-02T00:59:07;98052.93;;;6.91;66.67
50302;BME280;36550;50.472;19.744;2023-05-02T01:02:10;98049.23;;;6.87;66.86
50302;BME280;36550;50.472;19.744;2023-05-02T01:08:10;98050.24;;;6.75;67.34
50302;BME280;36550;50.472;19.744;2023-05-02T01:11:14;98052.20;;;6.70;67.45
50302;BME280;36550;50.472;19.744;2023-05-02T01:14:02;98059.21;;;6.62;67.45
50302;BME280;36550;50.472;19.744;2023-05-02T01:16:49;98059.97;;;6.53;67.51
50302;BME280;36550;50.472;19.744;2023-05-02T01:19:36;98054.83;;;6.54;67.71
50302;BME280;36550;50.472;19.744;2023-05-02T01:22:23;98054.11;;;6.56;67.93
50302;BME280;36550;50.472;19.744;2023-05-02T01:25:18;98057.47;;;6.57;68.06
50302;BME280;36550;50.472;19.744;2023-05-02T01:28:13;98057.84;;;6.55;68.30
50302;BME280;36550;50.472;19.744;2023-05-02T01:31:04;98055.56;;;6.53;68.49
50302;BME280;36550;50.472;19.744;2023-05-02T01:33:49;98049.92;;;6.48;68.42
50302;BME280;36550;50.472;19.744;2023-05-02T01:36:35;98051.11;;;6.44;68.42
50302;BME280;36550;50.472;19.744;2023-05-02T01:39:23;98051.01;;;6.39;68.62
50302;BME280;36550;50.472;19.744;2023-05-02T01:42:10;98048.61;;;6.36;68.78
50302;BME280;36550;50.472;19.744;2023-05-02T01:44:57;98047.95;;;6.35;69.08
50302;BME280;36550;50.472;19.744;2023-05-02T01:47:43;98046.87;;;6.39;69.26
50302;BME280;36550;50.472;19.744;2023-05-02T01:50:28;98045.73;;;6.40;69.30
50302;BME280;36550;50.472;19.744;2023-05-02T01:53:13;98043.73;;;6.42;69.26
50302;BME280;36550;50.472;19.744;2023-05-02T01:55:58;98044.17;;;6.43;69.50
50302;BME280;36550;50.472;19.744;2023-05-02T01:58:44;98044.73;;;6.43;69.60
50302;BME280;36550;50.472;19.744;2023-05-02T02:01:30;98050.71;;;6.41;69.59
50302;BME280;36550;50.472;19.744;2023-05-02T02:04:14;98051.48;;;6.36;69.68
50302;BME280;36550;50.472;19.744;2023-05-02T02:07:02;98049.82;;;6.33;69.73
50302;BME280;36550;50.472;19.744;2023-05-02T02:09:49;98047.87;;;6.30;69.79
50302;BME280;36550;50.472;19.744;2023-05-02T02:12:38;98051.44;;;6.26;69.82
50302;BME280;36550;50.472;19.744;2023-05-02T02:15:31;98047.88;;;6.26;69.92
50302;BME280;36550;50.472;19.744;2023-05-02T02:18:20;98048.48;;;6.25;69.92
50302;BME280;36550;50.472;19.744;2023-05-02T02:21:10;98045.20;;;6.25;70.17
50302;BME280;36550;50.472;19.744;2023-05-02T02:23:56;98047.51;;;6.26;70.25
50302;BME280;36550;50.472;19.744;2023-05-02T02:26:44;98048.52;;;6.25;70.29
50302;BME280;36550;50.472;19.744;2023-05-02T02:29:29;98047.21;;;6.22;70.43
50302;BME280;36550;50.472;19.744;2023-05-02T02:32:13;98048.82;;;6.20;70.41
50302;BME280;36550;50.472;19.744;2023-05-02T02:34:57;98047.81;;;6.17;70.43
50302;BME280;36550;50.472;19.744;2023-05-02T02:38:10;98044.19;;;6.12;70.43
50302;BME280;36550;50.472;19.744;2023-05-02T02:41:21;98040.79;;;6.07;70.45
50302;BME280;36550;50.472;19.744;2023-05-02T02:44:31;98042.16;;;6.05;70.18
50302;BME280;36550;50.472;19.744;2023-05-02T02:47:31;98044.09;;;6.01;70.06
50302;BME280;36550;50.472;19.744;2023-05-02T02:50:29;98038.04;;;5.97;70.30
50302;BME280;36550;50.472;19.744;2023-05-02T02:53:23;98038.27;;;5.98;70.65
50302;BME280;36550;50.472;19.744;2023-05-02T02:56:14;98043.23;;;6.04;71.17
50302;BME280;36550;50.472;19.744;2023-05-02T02:59:03;98044.98;;;6.12;71.54
50302;BME280;36550;50.472;19.744;2023-05-02T03:01:54;98040.25;;;6.37;72.82
50302;BME280;36550;50.472;19.744;2023-05-02T03:04:44;98040.74;;;6.74;73.62
50302;BME280;36550;50.472;19.744;2023-05-02T03:07:30;98040.55;;;7.07;73.93
50302;BME280;36550;50.472;19.744;2023-05-02T03:10:14;98045.92;;;7.39;73.83
50302;BME280;36550;50.472;19.744;2023-05-02T03:12:59;98040.65;;;7.64;73.61
50302;BME280;36550;50.472;19.744;2023-05-02T03:18:37;98040.59;;;8.01;73.20
50302;BME280;36550;50.472;19.744;2023-05-02T03:21:21;98041.40;;;8.16;72.98
50302;BME280;36550;50.472;19.744;2023-05-02T03:24:05;98039.91;;;8.32;72.81
50302;BME280;36550;50.472;19.744;2023-05-02T03:26:49;98037.81;;;8.48;72.46
50302;BME280;36550;50.472;19.744;2023-05-02T03:29:33;98038.69;;;8.63;72.31
50302;BME280;36550;50.472;19.744;2023-05-02T03:32:17;98039.13;;;8.78;72.05
50302;BME280;36550;50.472;19.744;2023-05-02T03:35:01;98040.50;;;8.92;71.78
50302;BME280;36550;50.472;19.744;2023-05-02T03:37:45;98043.15;;;9.05;71.44
50302;BME280;36550;50.472;19.744;2023-05-02T03:40:29;98039.04;;;9.17;71.04
50302;BME280;36550;50.472;19.744;2023-05-02T03:43:12;98041.11;;;9.29;70.76
50302;BME280;36550;50.472;19.744;2023-05-02T03:45:57;98042.23;;;9.39;70.38
50302;BME280;36550;50.472;19.744;2023-05-02T03:48:41;98043.23;;;9.48;70.01
50302;BME280;36550;50.472;19.744;2023-05-02T03:51:25;98041.95;;;9.58;69.67
50302;BME280;36550;50.472;19.744;2023-05-02T03:54:09;98046.80;;;9.71;69.36
50302;BME280;36550;50.472;19.744;2023-05-02T03:56:53;98046.63;;;9.84;68.97
50302;BME280;36550;50.472;19.744;2023-05-02T03:59:38;98046.64;;;9.97;68.57
50302;BME280;36550;50.472;19.744;2023-05-02T04:02:24;98047.58;;;10.11;68.15
50302;BME280;36550;50.472;19.744;2023-05-02T04:05:08;98047.65;;;10.22;67.64
50302;BME280;36550;50.472;19.744;2023-05-02T04:07:52;98046.53;;;10.33;67.28
50302;BME280;36550;50.472;19.744;2023-05-02T04:10:37;98047.20;;;10.45;66.71
50302;BME280;36550;50.472;19.744;2023-05-02T04:13:20;98050.66;;;10.56;66.46
50302;BME280;36550;50.472;19.744;2023-05-02T04:16:05;98048.06;;;10.66;66.17
50302;BME280;36550;50.472;19.744;2023-05-02T04:18:49;98048.52;;;10.76;65.48
50302;BME280;36550;50.472;19.744;2023-05-02T04:21:35;98050.67;;;10.88;65.27
50302;BME280;36550;50.472;19.744;2023-05-02T04:24:19;98051.98;;;10.99;65.20
50302;BME280;36550;50.472;19.744;2023-05-02T04:27:03;98055.08;;;11.11;64.72
50302;BME280;36550;50.472;19.744;2023-05-02T04:29:48;98055.09;;;11.24;64.58
50302;BME280;36550;50.472;19.744;2023-05-02T04:32:32;98053.72;;;11.40;64.09
50302;BME280;36550;50.472;19.744;2023-05-02T04:35:16;98060.65;;;11.56;63.82
50302;BME280;36550;50.472;19.744;2023-05-02T04:38:00;98057.95;;;11.72;63.47
50302;BME280;36550;50.472;19.744;2023-05-02T04:40:44;98060.01;;;11.90;63.09
50302;BME280;36550;50.472;19.744;2023-05-02T04:43:28;98061.68;;;12.07;62.80
50302;BME280;36550;50.472;19.744;2023-05-02T04:46:12;98062.70;;;12.24;62.32
50302;BME280;36550;50.472;19.744;2023-05-02T04:48:56;98064.36;;;12.42;62.26
50302;BME280;36550;50.472;19.744;2023-05-02T04:51:39;98064.67;;;12.61;61.87
50302;BME280;36550;50.472;19.744;2023-05-02T04:54:23;98063.67;;;12.81;61.59
50302;BME280;36550;50.472;19.744;2023-05-02T04:57:07;98059.76;;;12.98;61.15
50302;BME280;36550;50.472;19.744;2023-05-02T04:59:52;98063.77;;;13.16;60.81
50302;BME280;36550;50.472;19.744;2023-05-02T05:02:36;98065.41;;;13.33;60.31
50302;BME280;36550;50.472;19.744;2023-05-02T05:05:20;98059.92;;;13.50;60.03
50302;BME280;36550;50.472;19.744;2023-05-02T05:08:04;98059.77;;;13.66;59.68
50302;BME280;36550;50.472;19.744;2023-05-02T05:10:49;98060.84;;;13.81;59.00
50302;BME280;36550;50.472;19.744;2023-05-02T05:13:32;98060.41;;;13.97;58.58
50302;BME280;36550;50.472;19.744;2023-05-02T05:16:17;98068.57;;;14.13;58.04
50302;BME280;36550;50.472;19.744;2023-05-02T05:19:01;98066.23;;;14.26;57.25
50302;BME280;36550;50.472;19.744;2023-05-02T05:21:47;98069.09;;;14.42;56.78
50302;BME280;36550;50.472;19.744;2023-05-02T05:24:31;98065.98;;;14.56;56.35
50302;BME280;36550;50.472;19.744;2023-05-02T05:27:14;98066.60;;;14.73;55.75
50302;BME280;36550;50.472;19.744;2023-05-02T05:29:58;98066.38;;;14.90;55.11
50302;BME280;36550;50.472;19.744;2023-05-02T05:32:43;98061.98;;;15.06;54.74
50302;BME280;36550;50.472;19.744;2023-05-02T05:35:27;98064.59;;;15.26;54.29
50302;BME280;36550;50.472;19.744;2023-05-02T05:38:10;98067.52;;;15.44;53.44
50302;BME280;36550;50.472;19.744;2023-05-02T05:40:54;98068.83;;;15.59;53.18
50302;BME280;36550;50.472;19.744;2023-05-02T05:43:38;98070.69;;;15.75;53.04
50302;BME280;36550;50.472;19.744;2023-05-02T05:46:22;98068.55;;;15.90;52.55
50302;BME280;36550;50.472;19.744;2023-05-02T05:49:06;98069.44;;;16.07;52.44
50302;BME280;36550;50.472;19.744;2023-05-02T05:51:50;98069.97;;;16.24;52.15
50302;BME280;36550;50.472;19.744;2023-05-02T05:54:34;98075.64;;;16.40;52.08
50302;BME280;36550;50.472;19.744;2023-05-02T05:57:18;98074.36;;;16.54;50.90
50302;BME280;36550;50.472;19.744;2023-05-02T06:00:02;98077.76;;;16.67;51.11
50302;BME280;36550;50.472;19.744;2023-05-02T06:02:47;98079.13;;;16.78;50.62
50302;BME280;36550;50.472;19.744;2023-05-02T06:05:31;98080.70;;;16.88;50.59
50302;BME280;36550;50.472;19.744;2023-05-02T06:08:15;98081.09;;;16.96;50.11
50302;BME280;36550;50.472;19.744;2023-05-02T06:10:59;98080.67;;;17.03;50.06
50302;BME280;36550;50.472;19.744;2023-05-02T06:13:43;98085.30;;;17.10;49.90
50302;BME280;36550;50.472;19.744;2023-05-02T06:16:27;98086.11;;;17.17;49.59
50302;BME280;36550;50.472;19.744;2023-05-02T06:19:11;98086.83;;;17.21;49.76
50302;BME280;36550;50.472;19.744;2023-05-02T06:21:56;98086.33;;;17.24;48.94
50302;BME280;36550;50.472;19.744;2023-05-02T06:24:40;98087.15;;;17.28;49.19
50302;BME280;36550;50.472;19.744;2023-05-02T06:27:23;98085.49;;;17.38;49.36
50302;BME280;36550;50.472;19.744;2023-05-02T06:30:08;98084.66;;;17.49;48.88
50302;BME280;36550;50.472;19.744;2023-05-02T06:32:51;98085.59;;;17.59;48.42
50302;BME280;36550;50.472;19.744;2023-05-02T06:35:36;98081.61;;;17.70;48.37
50302;BME280;36550;50.472;19.744;2023-05-02T06:38:20;98081.83;;;17.83;48.41
50302;BME280;36550;50.472;19.744;2023-05-02T06:41:04;98086.27;;;17.96;48.34
50302;BME280;36550;50.472;19.744;2023-05-02T06:43:48;98083.00;;;18.09;48.32
50302;BME280;36550;50.472;19.744;2023-05-02T06:46:32;98082.42;;;18.22;48.00
50302;BME280;36550;50.472;19.744;2023-05-02T06:49:16;98083.85;;;18.38;48.25
50302;BME280;36550;50.472;19.744;2023-05-02T06:52:00;98084.71;;;18.50;47.79
50302;BME280;36550;50.472;19.744;2023-05-02T06:54:44;98090.00;;;18.62;47.84
50302;BME280;36550;50.472;19.744;2023-05-02T06:57:28;98091.38;;;18.75;47.61
50302;BME280;36550;50.472;19.744;2023-05-02T07:00:12;98095.98;;;18.86;47.18
50302;BME280;36550;50.472;19.744;2023-05-02T07:02:57;98098.71;;;18.97;46.90
50302;BME280;36550;50.472;19.744;2023-05-02T07:05:41;98102.91;;;19.10;46.28
50302;BME280;36550;50.472;19.744;2023-05-02T07:08:25;98100.67;;;19.17;45.45
50302;BME280;36550;50.472;19.744;2023-05-02T07:11:09;98099.44;;;19.26;44.72
50302;BME280;36550;50.472;19.744;2023-05-02T07:13:53;98101.64;;;19.39;45.08
50302;BME280;36550;50.472;19.744;2023-05-02T07:16:37;98103.46;;;19.59;45.60
50302;BME280;36550;50.472;19.744;2023-05-02T07:19:21;98100.55;;;19.82;45.27
50302;BME280;36550;50.472;19.744;2023-05-02T07:22:05;98105.57;;;20.03;45.37
50302;BME280;36550;50.472;19.744;2023-05-02T07:24:56;98105.86;;;20.26;44.52
50302;BME280;36550;50.472;19.744;2023-05-02T07:27:41;98107.20;;;20.40;43.09
50302;BME280;36550;50.472;19.744;2023-05-02T07:30:25;98113.95;;;20.46;42.62
50302;BME280;36550;50.472;19.744;2023-05-02T07:33:09;98118.26;;;20.49;42.74
50302;BME280;36550;50.472;19.744;2023-05-02T07:35:54;98121.64;;;20.57;43.54
50302;BME280;36550;50.472;19.744;2023-05-02T07:38:39;98128.38;;;20.68;43.39
50302;BME280;36550;50.472;19.744;2023-05-02T07:41:22;98129.45;;;20.71;43.25
50302;BME280;36550;50.472;19.744;2023-05-02T07:44:06;98134.99;;;20.78;43.48
50302;BME280;36550;50.472;19.744;2023-05-02T07:46:51;98136.86;;;20.87;43.66
50302;BME280;36550;50.472;19.744;2023-05-02T07:49:35;98141.46;;;20.96;43.52
50302;BME280;36550;50.472;19.744;2023-05-02T07:52:20;98138.98;;;20.98;42.79
50302;BME280;36550;50.472;19.744;2023-05-02T07:55:04;98144.33;;;20.97;42.33
50302;BME280;36550;50.472;19.744;2023-05-02T07:57:48;98144.11;;;21.03;42.85
50302;BME280;36550;50.472;19.744;2023-05-02T08:00:32;98146.05;;;21.11;41.95
50302;BME280;36550;50.472;19.744;2023-05-02T08:03:16;98147.29;;;21.18;42.20
50302;BME280;36550;50.472;19.744;2023-05-02T08:06:00;98151.48;;;21.27;42.29
50302;BME280;36550;50.472;19.744;2023-05-02T08:08:44;98151.95;;;21.35;42.57
50302;BME280;36550;50.472;19.744;2023-05-02T08:11:28;98151.50;;;21.41;42.42
50302;BME280;36550;50.472;19.744;2023-05-02T08:14:14;98154.68;;;21.45;41.79
50302;BME280;36550;50.472;19.744;2023-05-02T08:16:59;98154.40;;;21.38;41.19
50302;BME280;36550;50.472;19.744;2023-05-02T08:19:43;98156.79;;;21.33;41.30
50302;BME280;36550;50.472;19.744;2023-05-02T08:22:27;98162.35;;;21.28;41.10
50302;BME280;36550;50.472;19.744;2023-05-02T08:25:11;98160.36;;;21.19;40.67
50302;BME280;36550;50.472;19.744;2023-05-02T08:27:55;98162.80;;;21.09;40.40
50302;BME280;36550;50.472;19.744;2023-05-02T08:30:39;98166.94;;;21.03;40.18
50302;BME280;36550;50.472;19.744;2023-05-02T08:33:24;98174.05;;;21.00;40.40
50302;BME280;36550;50.472;19.744;2023-05-02T08:36:10;98172.48;;;20.99;40.51
50302;BME280;36550;50.472;19.744;2023-05-02T08:38:54;98172.98;;;21.03;40.95
50302;BME280;36550;50.472;19.744;2023-05-02T08:41:38;98175.66;;;21.10;40.97
50302;BME280;36550;50.472;19.744;2023-05-02T08:44:22;98177.38;;;21.17;40.98
50302;BME280;36550;50.472;19.744;2023-05-02T08:47:09;98181.32;;;21.20;41.03
50302;BME280;36550;50.472;19.744;2023-05-02T08:49:55;98185.33;;;21.27;40.96
50302;BME280;36550;50.472;19.744;2023-05-02T08:52:39;98191.17;;;21.33;41.23
50302;BME280;36550;50.472;19.744;2023-05-02T08:55:24;98191.67;;;21.45;40.87
50302;BME280;36550;50.472;19.744;2023-05-02T08:58:10;98186.47;;;21.57;40.64
50302;BME280;36550;50.472;19.744;2023-05-02T09:00:56;98189.02;;;21.66;40.68
50302;BME280;36550;50.472;19.744;2023-05-02T09:03:45;98190.06;;;21.72;40.55
50302;BME280;36550;50.472;19.744;2023-05-02T09:06:29;98189.09;;;21.75;40.23
50302;BME280;36550;50.472;19.744;2023-05-02T09:09:13;98185.91;;;21.71;40.59
50302;BME280;36550;50.472;19.744;2023-05-02T09:11:57;98188.14;;;21.65;40.76
50302;BME280;36550;50.472;19.744;2023-05-02T09:14:42;98188.03;;;21.59;41.05
50302;BME280;36550;50.472;19.744;2023-05-02T09:17:38;98186.23;;;21.67;41.23
50302;BME280;36550;50.472;19.744;2023-05-02T09:20:22;98185.58;;;21.75;41.02
50302;BME280;36550;50.472;19.744;2023-05-02T09:23:07;98183.48;;;21.80;40.82
50302;BME280;36550;50.472;19.744;2023-05-02T09:25:51;98187.20;;;21.83;40.77
50302;BME280;36550;50.472;19.744;2023-05-02T09:28:49;98183.35;;;21.79;40.77
50302;BME280;36550;50.472;19.744;2023-05-02T09:31:34;98184.55;;;21.82;40.84
50302;BME280;36550;50.472;19.744;2023-05-02T09:34:21;98185.48;;;21.90;41.15
50302;BME280;36550;50.472;19.744;2023-05-02T09:37:05;98187.90;;;21.98;40.99
50302;BME280;36550;50.472;19.744;2023-05-02T09:40:06;98191.83;;;22.04;40.62
50302;BME280;36550;50.472;19.744;2023-05-02T09:42:51;98191.40;;;22.15;40.24
50302;BME280;36550;50.472;19.744;2023-05-02T09:45:35;98189.89;;;22.24;40.18
50302;BME280;36550;50.472;19.744;2023-05-02T09:48:19;98194.23;;;22.33;40.37
50302;BME280;36550;50.472;19.744;2023-05-02T09:51:07;98199.01;;;22.32;40.60
50302;BME280;36550;50.472;19.744;2023-05-02T09:53:59;98192.99;;;22.18;39.50
50302;BME280;36550;50.472;19.744;2023-05-02T09:56:53;98192.98;;;21.87;39.11
50302;BME280;36550;50.472;19.744;2023-05-02T09:59:39;98193.47;;;21.64;39.73
50302;BME280;36550;50.472;19.744;2023-05-02T10:02:23;98193.68;;;21.52;40.45
50302;BME280;36550;50.472;19.744;2023-05-02T10:05:08;98198.20;;;21.48;40.43
50302;BME280;36550;50.472;19.744;2023-05-02T10:07:53;98196.41;;;21.47;40.42
50302;BME280;36550;50.472;19.744;2023-05-02T10:10:39;98195.08;;;21.52;40.42
50302;BME280;36550;50.472;19.744;2023-05-02T10:13:25;98194.54;;;21.73;40.50
50302;BME280;36550;50.472;19.744;2023-05-02T10:16:22;98198.23;;;22.02;40.55
50302;BME280;36550;50.472;19.744;2023-05-02T10:19:17;98198.50;;;22.33;40.00
50302;BME280;36550;50.472;19.744;2023-05-02T10:22:03;98195.36;;;22.53;39.67
50302;BME280;36550;50.472;19.744;2023-05-02T10:24:48;98191.85;;;22.64;39.17
50302;BME280;36550;50.472;19.744;2023-05-02T10:27:32;98190.19;;;22.76;39.76
50302;BME280;36550;50.472;19.744;2023-05-02T10:30:17;98188.45;;;22.95;39.89
50302;BME280;36550;50.472;19.744;2023-05-02T10:33:02;98184.05;;;23.17;39.65
50302;BME280;36550;50.472;19.744;2023-05-02T10:35:46;98188.14;;;23.36;39.38
50302;BME280;36550;50.472;19.744;2023-05-02T10:38:30;98185.84;;;23.51;38.89
50302;BME280;36550;50.472;19.744;2023-05-02T10:41:18;98186.86;;;23.59;38.14
50302;BME280;36550;50.472;19.744;2023-05-02T10:44:03;98195.06;;;23.66;37.88
50302;BME280;36550;50.472;19.744;2023-05-02T10:46:50;98202.89;;;23.74;38.08
50302;BME280;36550;50.472;19.744;2023-05-02T10:49:48;98199.23;;;23.87;37.87
50302;BME280;36550;50.472;19.744;2023-05-02T10:52:34;98195.96;;;23.95;37.86
50302;BME280;36550;50.472;19.744;2023-05-02T10:55:21;98193.02;;;24.09;37.95
50302;BME280;36550;50.472;19.744;2023-05-02T11:00:49;98194.84;;;24.27;37.75
50302;BME280;36550;50.472;19.744;2023-05-02T11:12:58;98195.02;;;24.47;36.78
50302;BME280;36550;50.472;19.744;2023-05-02T11:18:56;98193.31;;;24.50;36.71
50302;BME280;36550;50.472;19.744;2023-05-02T11:21:41;98195.11;;;24.47;36.07
50302;BME280;36550;50.472;19.744;2023-05-02T11:24:38;98189.00;;;24.38;36.17
50302;BME280;36550;50.472;19.744;2023-05-02T11:30:35;98198.29;;;24.31;36.12
50302;BME280;36550;50.472;19.744;2023-05-02T11:33:20;98200.92;;;24.34;35.84
50302;BME280;36550;50.472;19.744;2023-05-02T11:36:04;98200.75;;;24.31;35.89
50302;BME280;36550;50.472;19.744;2023-05-02T11:38:48;98201.20;;;24.14;35.65
50302;BME280;36550;50.472;19.744;2023-05-02T11:41:38;98203.64;;;24.14;36.39
50302;BME280;36550;50.472;19.744;2023-05-02T11:44:22;98205.13;;;24.26;35.66
50302;BME280;36550;50.472;19.744;2023-05-02T11:47:06;98201.14;;;24.27;36.18
50302;BME280;36550;50.472;19.744;2023-05-02T11:49:50;98199.90;;;24.34;36.12
50302;BME280;36550;50.472;19.744;2023-05-02T11:52:43;98205.80;;;24.20;35.55
50302;BME280;36550;50.472;19.744;2023-05-02T11:55:27;98215.21;;;24.12;35.87
50302;BME280;36550;50.472;19.744;2023-05-02T11:58:12;98217.80;;;24.07;36.54
50302;BME280;36550;50.472;19.744;2023-05-02T12:00:58;98221.01;;;23.85;37.10
50302;BME280;36550;50.472;19.744;2023-05-02T12:03:42;98218.81;;;23.46;38.25
50302;BME280;36550;50.472;19.744;2023-05-02T12:06:26;98227.39;;;23.33;38.28
50302;BME280;36550;50.472;19.744;2023-05-02T12:09:14;98220.61;;;23.11;38.49
50302;BME280;36550;50.472;19.744;2023-05-02T12:12:03;98225.50;;;22.92;39.03
50302;BME280;36550;50.472;19.744;2023-05-02T12:14:47;98227.61;;;22.72;39.89
50302;BME280;36550;50.472;19.744;2023-05-02T12:17:32;98230.77;;;22.74;40.42
50302;BME280;36550;50.472;19.744;2023-05-02T12:20:17;98231.91;;;22.83;40.38
50302;BME280;36550;50.472;19.744;2023-05-02T12:23:03;98238.35;;;22.93;40.33
50302;BME280;36550;50.472;19.744;2023-05-02T12:25:49;98234.54;;;22.89;39.82
50302;BME280;36550;50.472;19.744;2023-05-02T12:28:47;98235.92;;;22.75;40.17
50302;BME280;36550;50.472;19.744;2023-05-02T12:31:32;98241.30;;;22.66;40.61
50302;BME280;36550;50.472;19.744;2023-05-02T12:34:31;98243.67;;;22.67;40.32
50302;BME280;36550;50.472;19.744;2023-05-02T12:37:21;98249.14;;;22.65;40.01
50302;BME280;36550;50.472;19.744;2023-05-02T12:40:14;98246.62;;;22.72;40.24
50302;BME280;36550;50.472;19.744;2023-05-02T12:43:03;98249.71;;;22.69;39.96
50302;BME280;36550;50.472;19.744;2023-05-02T12:45:49;98252.13;;;22.48;40.11
50302;BME280;36550;50.472;19.744;2023-05-02T12:48:33;98256.84;;;22.40;40.25
50302;BME280;36550;50.472;19.744;2023-05-02T12:51:23;98255.02;;;22.31;40.66
50302;BME280;36550;50.472;19.744;2023-05-02T12:54:07;98252.98;;;22.24;40.86
50302;BME280;36550;50.472;19.744;2023-05-02T12:56:51;98256.15;;;22.29;40.83
50302;BME280;36550;50.472;19.744;2023-05-02T12:59:35;98257.64;;;22.28;40.41
50302;BME280;36550;50.472;19.744;2023-05-02T13:02:20;98246.83;;;22.27;40.64
50302;BME280;36550;50.472;19.744;2023-05-02T13:05:15;98249.72;;;22.29;40.49
50302;BME280;36550;50.472;19.744;2023-05-02T13:07:59;98250.05;;;22.26;40.57
50302;BME280;36550;50.472;19.744;2023-05-02T13:10:43;98255.02;;;22.29;41.17
50302;BME280;36550;50.472;19.744;2023-05-02T13:13:27;98258.66;;;22.35;41.25
50302;BME280;36550;50.472;19.744;2023-05-02T13:16:12;98262.17;;;22.34;41.22
50302;BME280;36550;50.472;19.744;2023-05-02T13:18:55;98266.16;;;22.13;41.42
50302;BME280;36550;50.472;19.744;2023-05-02T13:21:39;98262.84;;;21.98;41.80
50302;BME280;36550;50.472;19.744;2023-05-02T13:24:23;98266.16;;;21.98;42.20
50302;BME280;36550;50.472;19.744;2023-05-02T13:27:08;98263.45;;;22.06;42.23
50302;BME280;36550;50.472;19.744;2023-05-02T13:29:51;98269.89;;;22.12;41.73
50302;BME280;36550;50.472;19.744;2023-05-02T13:32:36;98268.81;;;22.08;41.43
50302;BME280;36550;50.472;19.744;2023-05-02T13:35:19;98272.39;;;22.03;41.55
50302;BME280;36550;50.472;19.744;2023-05-02T13:38:03;98277.08;;;21.85;41.84
50302;BME280;36550;50.472;19.744;2023-05-02T13:40:48;98276.80;;;21.55;42.27
50302;BME280;36550;50.472;19.744;2023-05-02T13:43:32;98285.77;;;21.20;42.51
50302;BME280;36550;50.472;19.744;2023-05-02T13:46:16;98294.88;;;20.98;42.96
50302;BME280;36550;50.472;19.744;2023-05-02T13:49:00;98296.27;;;20.71;43.75
50302;BME280;36550;50.472;19.744;2023-05-02T13:51:46;98298.27;;;20.56;44.13
50302;BME280;36550;50.472;19.744;2023-05-02T13:54:30;98301.87;;;20.41;44.39
50302;BME280;36550;50.472;19.744;2023-05-02T13:57:14;98301.80;;;20.32;44.86
50302;BME280;36550;50.472;19.744;2023-05-02T13:59:58;98303.52;;;20.18;44.86
50302;BME280;36550;50.472;19.744;2023-05-02T14:02:42;98303.44;;;20.04;45.07
50302;BME280;36550;50.472;19.744;2023-05-02T14:05:26;98306.13;;;19.84;44.83
50302;BME280;36550;50.472;19.744;2023-05-02T14:08:10;98303.83;;;19.72;45.27
50302;BME280;36550;50.472;19.744;2023-05-02T14:10:54;98298.42;;;19.61;45.45
50302;BME280;36550;50.472;19.744;2023-05-02T14:13:38;98298.42;;;19.53;45.46
50302;BME280;36550;50.472;19.744;2023-05-02T14:16:23;98299.89;;;19.45;45.84
50302;BME280;36550;50.472;19.744;2023-05-02T14:19:06;98300.34;;;19.44;46.02
50302;BME280;36550;50.472;19.744;2023-05-02T14:21:50;98302.85;;;19.39;46.21
50302;BME280;36550;50.472;19.744;2023-05-02T14:24:34;98308.86;;;19.34;45.55
50302;BME280;36550;50.472;19.744;2023-05-02T14:27:18;98305.15;;;19.28;46.21
50302;BME280;36550;50.472;19.744;2023-05-02T14:30:03;98308.63;;;19.30;47.08
50302;BME280;36550;50.472;19.744;2023-05-02T14:32:47;98308.11;;;19.30;46.50
50302;BME280;36550;50.472;19.744;2023-05-02T14:35:32;98308.98;;;19.29;46.59
50302;BME280;36550;50.472;19.744;2023-05-02T14:38:15;98316.55;;;19.23;46.38
50302;BME280;36550;50.472;19.744;2023-05-02T14:40:59;98316.50;;;19.12;45.98
50302;BME280;36550;50.472;19.744;2023-05-02T14:43:45;98323.75;;;19.00;45.07
50302;BME280;36550;50.472;19.744;2023-05-02T14:46:29;98321.20;;;18.83;44.41
50302;BME280;36550;50.472;19.744;2023-05-02T14:49:13;98323.28;;;18.74;44.19
50302;BME280;36550;50.472;19.744;2023-05-02T14:51:57;98318.81;;;18.68;44.27
50302;BME280;36550;50.472;19.744;2023-05-02T14:54:40;98320.88;;;18.63;44.32